Time;durP1;ratioP1;P1;durP2;ratioP2;P2;SDS_P1;SDS_P2;PMS_P1;PMS_P2;Temp;Humidity;BMP_temperature;BMP_pressure;BME280_temperature;BME280_humidity;BME280_pressure;Samples;Min_cycle;Max_cycle;Signal;HPM_P1;HPM_P2
2021/01/11 00:00:36;;;;;;;56.28;28.60;;;52.00;2227.20;;;;;;5111236;28;20024;-62
2021/01/11 00:03:02;;;;;;;55.97;30.08;;;52.10;2227.20;;;;;;5106395;28;20023;-62
2021/01/11 00:05:28;;;;;;;65.40;30.65;;;76.80;2227.20;;;;;;5107454;28;20040;-63
2021/01/11 00:07:54;;;;;;;57.65;28.60;;;76.80;2227.20;;;;;;5112257;28;20110;-62
2021/01/11 00:10:19;;;;;;;58.28;28.67;;;76.80;2227.20;;;;;;5109937;28;20065;-63
2021/01/11 00:12:45;;;;;;;57.63;29.13;;;52.10;2227.20;;;;;;5108042;28;20094;-63
2021/01/11 00:15:13;;;;;;;51.42;25.52;;;52.10;2227.20;;;;;;5111547;28;20026;-62
2021/01/11 00:17:39;;;;;;;61.13;30.42;;;76.80;2227.20;;;;;;5108348;28;20368;-64
2021/01/11 00:20:07;;;;;;;61.65;31.58;;;52.00;2227.20;;;;;;5096036;28;20024;-64
2021/01/11 00:22:33;;;;;;;61.20;30.60;;;52.00;2227.20;;;;;;5092624;28;20032;-64
2021/01/11 00:24:59;;;;;;;63.60;31.42;;;52.10;2227.20;;;;;;5093836;28;20020;-64
2021/01/11 00:27:25;;;;;;;57.25;29.08;;;52.10;2227.20;;;;;;5093188;28;20022;-62
2021/01/11 00:29:51;;;;;;;55.00;28.80;;;52.10;2227.20;;;;;;5093449;28;20012;-64
2021/01/11 00:32:17;;;;;;;56.20;29.05;;;76.90;2227.20;;;;;;5092610;28;20032;-65
2021/01/11 00:34:42;;;;;;;54.85;27.48;;;77.00;2227.20;;;;;;5094322;28;20383;-64
2021/01/11 00:37:10;;;;;;;63.25;31.23;;;76.80;2227.20;;;;;;5093811;28;20052;-64
2021/01/11 00:39:35;;;;;;;55.38;29.25;;;76.90;2227.20;;;;;;5093502;28;20028;-67
2021/01/11 00:42:01;;;;;;;52.42;27.90;;;76.90;2227.20;;;;;;5093543;28;20032;-65
2021/01/11 00:44:28;;;;;;;45.15;23.67;;;76.80;2227.20;;;;;;5092765;28;20026;-59
2021/01/11 00:47:04;;;;;;;43.95;22.67;;;76.90;2227.20;;;;;;5103372;28;20411;-59
2021/01/11 00:49:30;;;;;;;44.40;23.73;;;52.10;2227.20;;;;;;5094891;28;20099;-60
2021/01/11 00:51:56;;;;;;;50.08;24.35;;;52.10;2227.20;;;;;;5094412;28;20107;-61
2021/01/11 00:54:22;;;;;;;51.70;25.48;;;76.80;2227.20;;;;;;5094677;28;20075;-60
2021/01/11 00:56:49;;;;;;;48.30;24.83;;;76.90;2227.20;;;;;;5094385;28;20016;-60
2021/01/11 00:59:14;;;;;;;49.97;24.17;;;77.00;2227.20;;;;;;5094735;28;20020;-59
2021/01/11 01:01:50;;;;;;;50.60;25.45;;;76.80;2227.20;;;;;;5094480;28;20027;-60
2021/01/11 01:04:17;;;;;;;44.38;22.85;;;76.80;2227.20;;;;;;5093951;28;20036;-61
2021/01/11 01:06:43;;;;;;;48.20;24.42;;;52.00;2227.20;;;;;;5093918;28;20466;-63
2021/01/11 01:09:08;;;;;;;45.20;23.00;;;52.10;2227.20;;;;;;5094604;28;20028;-62
2021/01/11 01:11:41;;;;;;;44.72;22.63;;;76.90;2227.20;;;;;;5091632;28;20165;-65
2021/01/11 01:14:08;;;;;;;46.70;23.15;;;76.90;2227.20;;;;;;5095259;28;20124;-68
2021/01/11 01:16:34;;;;;;;45.38;23.42;;;76.90;2227.20;;;;;;5083040;28;20047;-69
2021/01/11 01:19:00;;;;;;;48.53;25.15;;;76.90;2227.20;;;;;;5106183;28;20031;-68
2021/01/11 01:21:26;;;;;;;46.00;23.63;;;76.90;2227.20;;;;;;5094310;28;20016;-70
2021/01/11 01:23:53;;;;;;;45.50;23.30;;;52.10;2227.20;;;;;;5094872;28;20093;-68
2021/01/11 01:26:19;;;;;;;45.13;22.90;;;76.80;2227.20;;;;;;5093816;28;20103;-68
2021/01/11 01:28:45;;;;;;;44.80;24.17;;;76.80;2227.20;;;;;;5093795;28;20060;-67
2021/01/11 01:31:11;;;;;;;46.55;23.60;;;52.10;2227.20;;;;;;5094020;28;20475;-67
2021/01/11 01:33:36;;;;;;;47.50;23.30;;;52.10;2227.20;;;;;;5106432;28;20035;-70
2021/01/11 01:36:02;;;;;;;41.38;23.05;;;52.00;2227.20;;;;;;5112542;28;20110;-71
2021/01/11 01:38:28;;;;;;;48.33;25.35;;;76.90;2227.20;;;;;;5111370;28;20031;-71
2021/01/11 01:40:55;;;;;;;44.17;23.45;;;77.00;2227.20;;;;;;5102349;28;20024;-69
2021/01/11 01:43:20;;;;;;;43.72;23.35;;;77.10;2227.20;;;;;;5093151;28;20027;-70
2021/01/11 01:45:46;;;;;;;46.88;24.00;;;77.10;2227.20;;;;;;5093931;28;20024;-68
2021/01/11 01:48:12;;;;;;;43.15;23.15;;;77.10;2227.20;;;;;;5094109;28;20032;-68
2021/01/11 01:50:40;;;;;;;44.45;23.73;;;77.20;2227.20;;;;;;5094317;28;20031;-72
2021/01/11 01:53:05;;;;;;;44.72;23.92;;;77.20;2227.20;;;;;;5093448;28;20035;-70
2021/01/11 01:55:32;;;;;;;44.97;23.83;;;77.10;2227.20;;;;;;5093257;28;20024;-69
2021/01/11 01:58:04;;;;;;;43.33;25.00;;;77.10;2227.20;;;;;;5093454;28;20089;-69
2021/01/11 02:00:29;;;;;;;42.10;22.80;;;77.10;2227.20;;;;;;5093545;28;20024;-71
2021/01/11 02:02:55;;;;;;;44.50;22.63;;;77.00;2227.20;;;;;;5093674;28;20024;-71
2021/01/11 02:05:21;;;;;;;39.85;21.52;;;77.00;2227.20;;;;;;5093273;28;20043;-69
2021/01/11 02:07:53;;;;;;;41.65;21.13;;;77.10;2227.20;;;;;;5093290;28;20024;-69
2021/01/11 02:10:49;;;;;;;45.25;23.08;;;77.00;2227.20;;;;;;5093008;28;20408;-70
2021/01/11 02:13:23;;;;;;;47.42;23.27;;;76.90;2227.20;;;;;;5092717;28;20071;-71
2021/01/11 02:16:11;;;;;;;41.55;21.52;;;77.10;2227.20;;;;;;5093237;28;20050;-67
2021/01/11 02:18:48;;;;;;;45.85;23.77;;;77.10;2227.20;;;;;;5093152;28;20362;-69
2021/01/11 02:21:25;;;;;;;40.40;21.13;;;77.10;2227.20;;;;;;5080242;28;20107;-69
2021/01/11 02:24:05;;;;;;;40.38;19.88;;;77.10;2227.20;;;;;;5092638;28;20049;-69
2021/01/11 02:27:17;;;;;;;41.17;21.27;;;77.10;2227.20;;;;;;5092892;28;20020;-67
2021/01/11 02:30:12;;;;;;;38.03;20.27;;;77.10;2227.20;;;;;;5010609;28;20030;-70
2021/01/11 02:32:48;;;;;;;40.08;20.83;;;77.20;2227.20;;;;;;5010355;28;20030;-66
2021/01/11 02:35:17;;;;;;;36.67;19.98;;;77.10;2227.20;;;;;;5010794;28;20108;-66
2021/01/11 02:37:43;;;;;;;37.28;20.63;;;77.10;2227.20;;;;;;5010349;28;20468;-68
2021/01/11 02:40:11;;;;;;;42.40;22.55;;;77.10;2227.20;;;;;;5011001;28;20497;-67
2021/01/11 02:42:37;;;;;;;46.25;23.65;;;76.80;2227.20;;;;;;5010654;28;20030;-67
2021/01/11 02:45:05;;;;;;;44.22;23.70;;;52.10;2227.20;;;;;;5010633;28;20068;-66
2021/01/11 02:47:41;;;;;;;38.40;20.48;;;76.90;2227.20;;;;;;5011181;28;20100;-67
2021/01/11 02:50:09;;;;;;;41.03;21.55;;;77.00;2227.20;;;;;;5009931;28;20044;-67
2021/01/11 02:52:49;;;;;;;46.03;23.42;;;77.00;2227.20;;;;;;5009997;28;20022;-66
2021/01/11 02:55:24;;;;;;;47.40;24.63;;;76.90;2227.20;;;;;;5013236;28;20092;-66
2021/01/11 02:58:30;;;;;;;47.92;23.92;;;76.90;2227.20;;;;;;5014506;28;20022;-66
2021/01/11 03:01:01;;;;;;;51.08;24.38;;;52.10;2227.20;;;;;;4992871;28;20041;-66
2021/01/11 03:03:30;;;;;;;51.70;24.13;;;76.80;2227.20;;;;;;5014212;28;20092;-65
2021/01/11 03:05:56;;;;;;;50.28;25.02;;;52.10;2227.20;;;;;;5028980;28;20039;-65
2021/01/11 03:08:23;;;;;;;48.67;24.52;;;52.10;2227.20;;;;;;5096967;28;20043;-66
2021/01/11 03:10:51;;;;;;;50.70;26.58;;;52.00;2227.20;;;;;;5078359;28;20133;-65
2021/01/11 03:13:17;;;;;;;47.40;24.88;;;52.00;2227.20;;;;;;5096220;28;20032;-65
2021/01/11 03:15:43;;;;;;;46.90;24.55;;;52.00;2227.20;;;;;;5096570;28;20020;-65
2021/01/11 03:18:09;;;;;;;50.90;24.83;;;51.80;2227.20;;;;;;5096268;28;20035;-65
2021/01/11 03:20:35;;;;;;;49.85;25.42;;;51.90;2227.20;;;;;;5096526;28;20024;-65
2021/01/11 03:23:01;;;;;;;50.60;26.15;;;51.90;2227.20;;;;;;5090978;28;20033;-65
2021/01/11 03:25:26;;;;;;;49.72;26.23;;;52.00;2227.20;;;;;;5087372;28;20028;-65
2021/01/11 03:27:52;;;;;;;55.25;26.25;;;52.00;2227.20;;;;;;5095722;28;20077;-67
2021/01/11 03:30:18;;;;;;;53.97;24.58;;;51.80;2227.20;;;;;;5096350;28;20385;-65
2021/01/11 03:32:47;;;;;;;47.92;25.40;;;51.70;2227.20;;;;;;5088776;28;20082;-65
2021/01/11 03:35:14;;;;;;;52.95;26.55;;;51.80;2227.20;;;;;;5075895;28;20040;-65
2021/01/11 03:37:39;;;;;;;51.30;27.45;;;51.80;2227.20;;;;;;5075383;28;20417;-65
2021/01/11 03:40:06;;;;;;;49.67;24.90;;;51.80;2227.20;;;;;;5075813;28;20016;-65
2021/01/11 03:42:35;;;;;;;53.28;25.98;;;51.80;2227.20;;;;;;5075353;28;20047;-66
2021/01/11 03:45:01;;;;;;;50.13;23.95;;;52.00;2227.20;;;;;;5075852;28;20474;-65
2021/01/11 03:47:26;;;;;;;48.58;25.17;;;52.00;2227.20;;;;;;5075346;28;20055;-65
2021/01/11 03:49:53;;;;;;;48.00;24.00;;;52.10;2227.20;;;;;;5075579;28;20024;-65
2021/01/11 03:52:19;;;;;;;46.58;25.15;;;51.90;2227.20;;;;;;5075663;28;20029;-65
2021/01/11 03:54:44;;;;;;;51.20;23.95;;;52.00;2227.20;;;;;;5075187;28;20104;-65
2021/01/11 03:57:10;;;;;;;47.90;23.80;;;52.00;2227.20;;;;;;5075456;28;20052;-65
2021/01/11 03:59:35;;;;;;;46.97;24.05;;;51.90;2227.20;;;;;;5075279;28;20056;-65
2021/01/11 04:02:01;;;;;;;46.72;24.08;;;52.00;2227.20;;;;;;5075386;28;20020;-64
2021/01/11 04:04:27;;;;;;;48.72;23.77;;;51.90;2227.20;;;;;;5086871;28;20048;-65
2021/01/11 04:06:53;;;;;;;51.60;24.48;;;51.60;2227.20;;;;;;5090584;28;20504;-65
2021/01/11 04:09:19;;;;;;;48.75;25.05;;;51.80;2227.20;;;;;;5108460;28;20020;-65
2021/01/11 04:11:45;;;;;;;45.85;22.88;;;52.10;2227.20;;;;;;5115727;28;20016;-65
2021/01/11 04:14:10;;;;;;;46.88;22.98;;;76.80;2227.20;;;;;;5115508;28;20081;-66
2021/01/11 04:16:36;;;;;;;44.17;23.02;;;76.90;2227.20;;;;;;5115669;28;20016;-64
2021/01/11 04:19:02;;;;;;;48.83;24.90;;;76.90;2227.20;;;;;;5115945;28;20110;-65
2021/01/11 04:21:27;;;;;;;45.53;22.80;;;76.90;2227.20;;;;;;5115652;28;20050;-66
2021/01/11 04:23:53;;;;;;;49.42;24.90;;;76.90;2227.20;;;;;;5118727;28;20061;-69
2021/01/11 04:26:19;;;;;;;50.67;24.02;;;76.80;2227.20;;;;;;5119602;28;20338;-66
2021/01/11 04:28:44;;;;;;;49.90;24.15;;;76.90;2227.20;;;;;;5118228;28;20043;-67
2021/01/11 04:31:10;;;;;;;51.92;25.38;;;77.00;2227.20;;;;;;5100960;28;20035;-68
2021/01/11 04:33:36;;;;;;;54.13;25.50;;;77.10;2227.20;;;;;;5118270;28;20027;-70
2021/01/11 04:36:02;;;;;;;51.08;25.65;;;76.90;2227.20;;;;;;5116865;28;20106;-64
2021/01/11 04:38:27;;;;;;;54.60;25.85;;;76.90;2227.20;;;;;;5115106;28;20031;-65
2021/01/11 04:41:03;;;;;;;56.15;26.90;;;76.90;2227.20;;;;;;5109646;28;20477;-64
2021/01/11 04:43:33;;;;;;;54.20;27.10;;;77.10;2227.20;;;;;;5107829;28;20020;-64
2021/01/11 04:45:59;;;;;;;58.40;27.38;;;77.10;2227.20;;;;;;5115089;28;20024;-64
2021/01/11 04:48:25;;;;;;;55.75;26.83;;;76.80;2227.20;;;;;;5115145;28;20026;-63
2021/01/11 04:50:50;;;;;;;55.92;26.75;;;52.10;2227.20;;;;;;5109155;28;20419;-64
2021/01/11 04:53:19;;;;;;;57.35;28.27;;;52.10;2227.20;;;;;;5094412;28;20029;-65
2021/01/11 04:55:45;;;;;;;59.30;27.88;;;51.80;2227.20;;;;;;5094599;28;20163;-64
2021/01/11 04:58:11;;;;;;;64.75;28.60;;;51.90;2227.20;;;;;;5094297;28;20554;-64
2021/01/11 05:00:39;;;;;;;59.95;28.77;;;51.80;2227.20;;;;;;5094495;28;20474;-65
2021/01/11 05:03:07;;;;;;;60.63;28.83;;;51.80;2227.20;;;;;;5094236;28;20024;-63
2021/01/11 05:05:39;;;;;;;54.38;25.10;;;51.90;2227.20;;;;;;5094202;28;20129;-65
2021/01/11 05:08:05;;;;;;;63.33;29.30;;;52.00;2227.20;;;;;;5094290;28;20035;-64
2021/01/11 05:10:33;;;;;;;57.63;28.15;;;51.80;2227.20;;;;;;5093939;28;20024;-64
2021/01/11 05:13:01;;;;;;;57.23;28.03;;;52.00;2227.20;;;;;;5075993;28;20417;-65
2021/01/11 05:15:38;;;;;;;59.67;28.30;;;52.00;2227.20;;;;;;5094285;28;20020;-65
2021/01/11 05:18:16;;;;;;;55.03;28.88;;;52.00;2227.20;;;;;;5093504;28;20027;-63
2021/01/11 05:20:43;;;;;;;59.80;27.38;;;52.00;2227.20;;;;;;5093958;28;20485;-65
2021/01/11 05:23:16;;;;;;;51.92;25.23;;;52.10;2227.20;;;;;;5093687;28;20020;-65
2021/01/11 05:25:43;;;;;;;50.90;24.70;;;76.80;2227.20;;;;;;5094060;28;20020;-64
2021/01/11 05:28:17;;;;;;;52.65;25.15;;;76.80;2227.20;;;;;;5094124;28;20099;-65
2021/01/11 05:30:49;;;;;;;50.03;24.02;;;52.00;2227.20;;;;;;5094053;28;20036;-64
2021/01/11 05:33:25;;;;;;;50.83;25.05;;;52.10;2227.20;;;;;;5093735;28;20059;-64
2021/01/11 05:36:07;;;;;;;49.95;23.83;;;76.80;2227.20;;;;;;5093978;28;20420;-64
2021/01/11 05:38:42;;;;;;;50.22;24.00;;;76.80;2227.20;;;;;;5093415;28;20474;-65
2021/01/11 05:41:18;;;;;;;47.53;22.92;;;52.00;2227.20;;;;;;5093754;28;20020;-64
2021/01/11 05:43:48;;;;;;;50.58;25.25;;;76.80;2227.20;;;;;;5093456;28;20023;-65
2021/01/11 05:46:25;;;;;;;50.15;23.27;;;52.00;2227.20;;;;;;5094275;28;20023;-65
2021/01/11 05:49:00;;;;;;;52.28;24.42;;;76.80;2227.20;;;;;;5075042;28;20474;-66
2021/01/11 05:51:28;;;;;;;46.38;23.42;;;52.10;2227.20;;;;;;5094275;28;20467;-66
2021/01/11 05:53:54;;;;;;;44.42;23.08;;;52.00;2227.20;;;;;;5093145;28;20392;-65
2021/01/11 05:56:19;;;;;;;44.40;23.50;;;76.80;2227.20;;;;;;5093819;28;20020;-66
2021/01/11 05:59:05;;;;;;;46.97;23.70;;;76.90;2227.20;;;;;;5093012;28;20051;-65
2021/01/11 06:01:32;;;;;;;44.70;23.90;;;76.90;2227.20;;;;;;5093722;28;20024;-66
2021/01/11 06:03:58;;;;;;;48.20;23.02;;;77.00;2227.20;;;;;;5093303;28;20040;-66
2021/01/11 06:06:24;;;;;;;51.80;24.55;;;76.80;2227.20;;;;;;5093369;28;20085;-66
2021/01/11 06:08:53;;;;;;;77.88;46.10;;;52.10;2227.20;;;;;;5092791;28;20020;-66
2021/01/11 06:11:20;;;;;;;;;;;52.00;2227.20;;;;;;5093748;28;20474;-66
2021/01/11 06:13:48;;;;;;;67.43;40.33;;;52.10;2227.20;;;;;;5092952;28;19912;-66
2021/01/11 06:16:18;;;;;;;55.85;29.83;;;52.10;2227.20;;;;;;5079354;28;20020;-66
2021/01/11 06:18:47;;;;;;;109.43;80.13;;;76.80;2227.20;;;;;;5092757;28;20499;-65
2021/01/11 06:21:14;;;;;;;81.13;47.55;;;52.10;2227.20;;;;;;5093054;28;20016;-65
2021/01/11 06:23:39;;;;;;;93.82;59.83;;;76.80;2227.20;;;;;;5074982;28;20028;-66
2021/01/11 06:26:26;;;;;;;75.43;45.53;;;76.80;2227.20;;;;;;5093024;28;20020;-66
2021/01/11 06:28:52;;;;;;;55.85;26.90;;;76.90;2227.20;;;;;;5092634;28;20020;-66
2021/01/11 06:31:25;;;;;;;73.00;42.15;;;77.10;2227.20;;;;;;5093350;28;20016;-66
2021/01/11 06:33:50;;;;;;;66.72;41.45;;;76.90;2227.20;;;;;;5074623;28;20032;-65
2021/01/11 06:36:31;;;;;;;125.78;92.88;;;77.10;2227.20;;;;;;5092727;28;20020;-65
2021/01/11 06:39:08;;;;;;;66.03;38.28;;;76.90;2227.20;;;;;;5095490;28;20382;-66
2021/01/11 06:41:35;;;;;;;81.07;48.95;;;76.80;2227.20;;;;;;5079538;28;20386;-65
2021/01/11 06:44:06;;;;;;;60.78;29.95;;;76.90;2227.20;;;;;;5092743;28;20024;-66
2021/01/11 06:46:32;;;;;;;58.13;30.15;;;76.90;2227.20;;;;;;5092338;28;20017;-65
2021/01/11 06:49:04;;;;;;;58.30;29.45;;;77.00;2227.20;;;;;;5099549;28;20046;-65
2021/01/11 06:51:32;;;;;;;62.80;31.63;;;77.00;2227.20;;;;;;5106009;28;20077;-65
2021/01/11 06:54:14;;;;;;;51.95;27.98;;;77.10;2227.20;;;;;;5103604;28;20548;-66
2021/01/11 06:56:42;;;;;;;64.75;34.55;;;77.30;2227.20;;;;;;5092413;28;20016;-67
2021/01/11 06:59:12;;;;;;;74.18;38.72;;;77.20;2227.20;;;;;;5097182;28;20039;-65
2021/01/11 07:01:41;;;;;;;70.75;36.53;;;77.30;2227.20;;;;;;5092471;28;20016;-65
2021/01/11 07:04:07;;;;;;;;;;;76.80;2227.20;;;;;;5092727;28;20119;-67
2021/01/11 07:06:38;;;;;;;57.00;29.02;;;77.10;2227.20;;;;;;5102764;28;19987;-66
2021/01/11 07:09:10;;;;;;;57.53;29.35;;;52.00;2227.20;;;;;;5095075;28;20008;-63
2021/01/11 07:11:41;;;;;;;59.85;29.08;;;51.80;2227.20;;;;;;5100203;28;20023;-65
2021/01/11 07:14:07;;;;;;;56.65;29.63;;;51.90;2227.20;;;;;;5095510;28;20047;-65
2021/01/11 07:16:53;;;;;;;58.13;29.52;;;52.00;2227.20;;;;;;5092327;28;20026;-63
2021/01/11 07:19:37;;;;;;;61.22;30.17;;;76.80;2227.20;;;;;;5092694;28;20020;-65
2021/01/11 07:22:09;;;;;;;57.30;30.50;;;77.00;2227.20;;;;;;5073740;28;20032;-62
2021/01/11 07:24:37;;;;;;;65.43;37.70;;;76.90;2227.20;;;;;;5092230;28;20052;-63
2021/01/11 07:27:03;;;;;;;64.13;31.17;;;52.10;2227.20;;;;;;5092455;28;20036;-64
2021/01/11 07:29:29;;;;;;;59.70;29.33;;;52.10;2227.20;;;;;;5092074;28;20028;-63
2021/01/11 07:31:54;;;;;;;62.95;31.77;;;76.80;2227.20;;;;;;5092314;28;20066;-64
2021/01/11 07:34:24;;;;;;;56.80;27.88;;;52.00;2227.20;;;;;;5092905;28;20385;-62
2021/01/11 07:36:52;;;;;;;61.25;32.15;;;52.10;2227.20;;;;;;5092437;28;20024;-62
2021/01/11 07:39:25;;;;;;;68.07;39.75;;;76.80;2227.20;;;;;;5074246;28;20058;-62
2021/01/11 07:41:54;;;;;;;115.00;81.50;;;76.80;2227.20;;;;;;5095883;28;20024;-62
2021/01/11 07:44:23;;;;;;;63.28;31.00;;;52.00;2227.20;;;;;;5107748;28;20019;-62
2021/01/11 07:47:01;;;;;;;67.35;31.38;;;51.90;2227.20;;;;;;5082298;28;20470;-64
2021/01/11 07:49:29;;;;;;;66.45;30.73;;;51.50;2227.20;;;;;;5103900;28;20351;-64
2021/01/11 07:52:04;;;;;;;64.22;30.75;;;51.80;2227.20;;;;;;5091008;28;20043;-65
2021/01/11 07:54:30;;;;;;;68.18;31.60;;;76.80;2227.20;;;;;;5102795;28;20089;-64
2021/01/11 07:56:57;;;;;;;62.22;29.45;;;51.80;2227.20;;;;;;5077322;28;20363;-67
2021/01/11 07:59:23;;;;;;;69.57;34.90;;;51.50;2227.20;;;;;;5081287;28;20371;-65
2021/01/11 08:01:50;;;;;;;66.40;31.20;;;51.60;2227.20;;;;;;5095638;28;20103;-64
2021/01/11 08:04:18;;;;;;;70.80;35.60;;;51.60;2227.20;;;;;;5095303;28;20054;-63
2021/01/11 08:06:52;;;;;;;65.82;32.42;;;51.80;2227.20;;;;;;5095344;28;20116;-61
2021/01/11 08:09:19;;;;;;;66.15;34.70;;;51.60;2227.20;;;;;;5094601;28;20016;-65
2021/01/11 08:11:46;;;;;;;67.97;39.03;;;52.10;2227.20;;;;;;5095027;28;20016;-64
2021/01/11 08:14:12;;;;;;;59.75;28.17;;;76.80;2227.20;;;;;;5095704;28;20028;-63
2021/01/11 08:16:41;;;;;;;63.50;29.80;;;52.00;2227.20;;;;;;5076778;28;20028;-64
2021/01/11 08:19:08;;;;;;;63.00;32.22;;;52.00;2227.20;;;;;;5093509;28;20020;-63
2021/01/11 08:21:34;;;;;;;61.95;29.88;;;51.90;2227.20;;;;;;5094088;28;20111;-64
2021/01/11 08:24:01;;;;;;;67.85;32.85;;;76.80;2227.20;;;;;;5095081;28;20133;-64
2021/01/11 08:26:28;;;;;;;69.53;30.85;;;52.00;2227.20;;;;;;5098801;28;20024;-64
2021/01/11 08:28:55;;;;;;;68.97;33.17;;;76.90;2227.20;;;;;;5111512;28;20020;-67
2021/01/11 08:31:21;;;;;;;66.82;32.55;;;52.10;2227.20;;;;;;5099733;28;20481;-67
2021/01/11 08:33:47;;;;;;;66.93;32.10;;;52.10;2227.20;;;;;;5102376;28;20036;-64
2021/01/11 08:36:18;;;;;;;71.38;33.25;;;77.00;2227.20;;;;;;5116003;28;20474;-64
2021/01/11 08:39:09;;;;;;;69.18;32.47;;;76.90;2227.20;;;;;;5109129;28;20494;-63
2021/01/11 08:41:42;;;;;;;58.72;28.95;;;77.30;2227.20;;;;;;5109097;28;20027;-64
2021/01/11 08:44:26;;;;;;;68.22;32.20;;;77.30;2227.20;;;;;;5103032;28;20016;-63
2021/01/11 08:46:52;;;;;;;66.38;32.28;;;77.30;2227.20;;;;;;5114972;28;20035;-63
2021/01/11 08:49:19;;;;;;;73.72;33.83;;;77.00;2227.20;;;;;;5115556;28;20028;-63
2021/01/11 08:51:46;;;;;;;69.63;32.90;;;52.10;2227.20;;;;;;5113559;28;20110;-63
2021/01/11 08:54:28;;;;;;;82.78;49.40;;;77.10;2227.20;;;;;;5115173;28;20042;-65
2021/01/11 08:56:58;;;;;;;99.60;57.65;;;76.90;2227.20;;;;;;5100759;28;20016;-63
2021/01/11 08:59:24;;;;;;;75.40;40.13;;;76.90;2227.20;;;;;;5114913;28;20019;-63
2021/01/11 09:01:51;;;;;;;68.90;32.95;;;77.30;2227.20;;;;;;5114680;28;20016;-66
2021/01/11 09:04:36;;;;;;;74.35;37.55;;;77.50;2227.20;;;;;;5108949;28;20071;-64
2021/01/11 09:07:06;;;;;;;64.75;32.85;;;77.60;2227.20;;;;;;5074594;28;20036;-63
2021/01/11 09:09:33;;;;;;;64.97;31.73;;;77.40;2227.20;;;;;;5097917;28;20107;-64
2021/01/11 09:12:06;;;;;;;68.25;33.17;;;77.40;2227.20;;;;;;5104117;28;20030;-63
2021/01/11 09:14:34;;;;;;;65.07;32.22;;;77.20;2227.20;;;;;;5104831;28;20031;-63
2021/01/11 09:17:05;;;;;;;67.38;34.00;;;77.30;2227.20;;;;;;5110177;28;20085;-65
2021/01/11 09:19:32;;;;;;;69.95;32.53;;;77.00;2227.20;;;;;;5114582;28;20048;-65
2021/01/11 09:22:16;;;;;;;62.17;31.48;;;52.10;2227.20;;;;;;5113684;28;20442;-63
2021/01/11 09:24:43;;;;;;;70.50;35.13;;;77.00;2227.20;;;;;;5103403;28;20023;-62
2021/01/11 09:27:09;;;;;;;66.38;30.45;;;76.90;2227.20;;;;;;5113914;28;20028;-64
2021/01/11 09:29:37;;;;;;;66.20;32.83;;;76.90;2227.20;;;;;;5114727;28;20015;-64
2021/01/11 09:32:03;;;;;;;65.03;32.20;;;77.20;2227.20;;;;;;5114310;28;20035;-64
2021/01/11 09:34:29;;;;;;;68.30;32.03;;;77.40;2227.20;;;;;;5114145;28;20539;-65
2021/01/11 09:36:54;;;;;;;68.30;33.20;;;77.70;2227.20;;;;;;5114078;28;20031;-61
2021/01/11 09:39:20;;;;;;;69.05;34.08;;;77.40;2227.20;;;;;;5110871;28;20457;-62
2021/01/11 09:41:53;;;;;;;70.28;34.80;;;77.70;2227.20;;;;;;5102873;28;20072;-62
2021/01/11 09:44:19;;;;;;;55.83;28.95;;;102.40;2227.20;;;;;;5114094;28;20059;-63
2021/01/11 09:46:51;;;;;;;69.80;34.13;;;77.50;2227.20;;;;;;5113729;28;20106;-62
2021/01/11 09:49:18;;;;;;;68.53;33.53;;;77.70;2227.20;;;;;;5114041;28;20422;-64
2021/01/11 09:51:43;;;;;;;68.32;34.78;;;77.70;2227.20;;;;;;5113822;28;20489;-63
2021/01/11 09:54:09;;;;;;;60.85;30.83;;;77.40;2227.20;;;;;;5113649;28;20035;-62
2021/01/11 09:56:38;;;;;;;65.40;32.13;;;102.40;2227.20;;;;;;5113609;28;20023;-62
2021/01/11 09:59:05;;;;;;;66.30;33.42;;;102.60;2227.20;;;;;;5095676;28;20023;-62
2021/01/11 10:01:48;;;;;;;69.10;34.47;;;102.60;2176.00;;;;;;5113812;28;20106;-61
2021/01/11 10:04:16;;;;;;;61.20;30.80;;;77.70;2227.20;;;;;;5113406;28;20051;-61
2021/01/11 10:06:56;;;;;;;129.63;61.15;;;102.40;2176.00;;;;;;5113565;28;20161;-62
2021/01/11 10:09:24;;;;;;;180.85;102.38;;;102.50;2227.20;;;;;;5113827;28;20023;-64
2021/01/11 10:12:04;;;;;;;107.18;56.17;;;102.40;2201.60;;;;;;5113229;28;20434;-64
2021/01/11 10:14:30;;;;;;;84.47;42.97;;;102.50;2227.20;;;;;;5101661;28;20035;-62
2021/01/11 10:16:56;;;;;;;80.93;41.17;;;77.70;2227.20;;;;;;5110985;28;20096;-62
2021/01/11 10:19:29;;;;;;;70.00;36.25;;;77.40;2227.20;;;;;;5095754;28;20080;-62
2021/01/11 10:21:56;;;;;;;72.28;39.30;;;77.40;2227.20;;;;;;5113533;28;20024;-61
2021/01/11 10:24:25;;;;;;;75.22;40.35;;;102.40;2227.20;;;;;;5094941;28;20393;-63
2021/01/11 10:26:52;;;;;;;74.18;37.35;;;102.60;2227.20;;;;;;5113323;28;20493;-63
2021/01/11 10:29:21;;;;;;;70.72;35.08;;;77.70;2227.20;;;;;;5114375;28;20106;-64
2021/01/11 10:31:47;;;;;;;69.03;35.33;;;102.40;2201.60;;;;;;5113829;28;20474;-62
2021/01/11 10:34:17;;;;;;;70.47;36.50;;;102.60;2201.60;;;;;;5113554;28;20489;-62
2021/01/11 10:36:47;;;;;;;70.63;34.72;;;102.70;2201.60;;;;;;5106846;28;20039;-64
2021/01/11 10:39:14;;;;;;;64.50;32.10;;;102.90;2176.00;;;;;;5092827;28;20122;-63
2021/01/11 10:41:40;;;;;;;65.47;32.60;;;102.80;2150.40;;;;;;5096382;28;20441;-65
2021/01/11 10:44:07;;;;;;;74.45;37.47;;;102.90;2150.40;;;;;;5110919;28;20074;-62
2021/01/11 10:46:34;;;;;;;67.22;32.33;;;103.10;2124.80;;;;;;5099294;28;20084;-62
2021/01/11 10:49:00;;;;;;;65.88;33.28;;;102.70;2099.20;;;;;;5113043;28;20035;-64
2021/01/11 10:51:26;;;;;;;68.50;36.30;;;102.70;2150.40;;;;;;5112972;28;20063;-63
2021/01/11 10:53:52;;;;;;;64.13;32.38;;;102.80;2176.00;;;;;;5106539;28;20071;-63
2021/01/11 10:56:20;;;;;;;64.72;34.03;;;102.70;2150.40;;;;;;5105269;28;20026;-62
2021/01/11 10:58:46;;;;;;;68.72;34.40;;;102.60;2150.40;;;;;;5112645;28;20024;-64
2021/01/11 11:01:14;;;;;;;67.00;33.10;;;77.70;2201.60;;;;;;5113239;28;20038;-62
2021/01/11 11:03:40;;;;;;;72.28;33.45;;;102.50;2176.00;;;;;;5112592;28;20046;-63
2021/01/11 11:06:06;;;;;;;69.22;34.92;;;77.50;2227.20;;;;;;5112876;28;20400;-64
2021/01/11 11:08:32;;;;;;;67.63;35.25;;;77.70;2227.20;;;;;;5096116;28;20024;-63
2021/01/11 11:10:57;;;;;;;68.22;32.83;;;102.60;2176.00;;;;;;5089494;28;20027;-64
2021/01/11 11:13:23;;;;;;;72.70;34.05;;;77.70;2201.60;;;;;;5080440;28;20039;-62
2021/01/11 11:15:49;;;;;;;73.68;35.03;;;77.30;2227.20;;;;;;5094636;28;20053;-64
2021/01/11 11:18:15;;;;;;;63.38;32.22;;;77.30;2227.20;;;;;;5096501;28;20024;-64
2021/01/11 11:20:44;;;;;;;66.38;34.67;;;77.40;2227.20;;;;;;5096445;28;20390;-63
2021/01/11 11:23:10;;;;;;;70.47;33.65;;;77.40;2227.20;;;;;;5096235;28;20028;-64
2021/01/11 11:25:35;;;;;;;70.80;32.55;;;77.60;2227.20;;;;;;5096321;28;20096;-63
2021/01/11 11:28:04;;;;;;;72.05;35.80;;;102.40;2227.20;;;;;;5096773;28;20020;-65
2021/01/11 11:30:30;;;;;;;69.55;31.92;;;102.60;2201.60;;;;;;5097069;28;20031;-63
2021/01/11 11:32:56;;;;;;;73.53;35.42;;;102.60;2150.40;;;;;;5096950;28;20039;-63
2021/01/11 11:35:22;;;;;;;72.13;32.83;;;102.60;2124.80;;;;;;5097155;28;20032;-62
2021/01/11 11:37:48;;;;;;;63.75;32.25;;;77.70;2227.20;;;;;;5096915;28;20485;-64
2021/01/11 11:40:15;;;;;;;66.75;33.72;;;102.60;2227.20;;;;;;5096892;28;20016;-65
2021/01/11 11:42:42;;;;;;;65.97;32.28;;;102.70;2176.00;;;;;;5077245;28;20544;-63
2021/01/11 11:45:11;;;;;;;66.28;33.78;;;77.60;2227.20;;;;;;5101964;28;20115;-65
2021/01/11 11:47:38;;;;;;;;;;;77.30;2227.20;;;;;;5115527;28;20031;-66
2021/01/11 11:50:06;;;;;;;67.75;32.25;;;77.40;2227.20;;;;;;5115465;28;19988;-64
2021/01/11 11:52:32;;;;;;;66.82;32.47;;;77.50;2227.20;;;;;;5113229;28;20024;-66
2021/01/11 11:54:58;;;;;;;69.47;33.42;;;77.70;2227.20;;;;;;5097320;28;20467;-66
2021/01/11 11:57:24;;;;;;;60.28;31.08;;;102.40;2227.20;;;;;;5103665;28;20030;-64
2021/01/11 11:59:49;;;;;;;65.68;30.83;;;102.50;2227.20;;;;;;5112421;28;20528;-67
2021/01/11 12:02:15;;;;;;;65.28;31.17;;;77.50;2227.20;;;;;;5108162;28;20011;-67
2021/01/11 12:04:42;;;;;;;63.35;29.77;;;77.40;2227.20;;;;;;5113617;28;20039;-65
2021/01/11 12:07:08;;;;;;;65.72;32.42;;;76.80;2227.20;;;;;;5081696;28;20333;-67
2021/01/11 12:09:34;;;;;;;63.83;32.85;;;76.90;2227.20;;;;;;5096022;28;20043;-64
2021/01/11 12:12:00;;;;;;;68.50;32.92;;;76.80;2227.20;;;;;;5097184;28;20052;-63
2021/01/11 12:14:25;;;;;;;68.38;32.08;;;77.00;2227.20;;;;;;5097081;28;20028;-63
2021/01/11 12:16:51;;;;;;;65.10;32.13;;;77.10;2227.20;;;;;;5094167;28;20020;-64